Terminal Aerodrome Forecast
Issued by NWS

Home | Current Version | Previous Version | Text Only | Print | Product List | Glossary On
Versions: 1 2 3 4 5 6 7 8 9 10 11 12 13 14 15 16 17
000
FTUS41 KGYX 021947 AAA
TAFRKD
TAF AMD
KRKD 021947Z 0220/0318 07012KT 3SM -RA BR OVC003
     FM030100 05003KT 1 1/2SM -RA BR OVC003
     FM030300 34003KT 1/2SM FG OVC002
     FM031200 32002KT P6SM OVC007
      AMD LTD TO CLD VIS AND WIND=

USA.gov is the U.S. government's official web portal to all federal, state and local government web resources and services.